Time;durP1;ratioP1;P1;durP2;ratioP2;P2;SDS_P1;SDS_P2;PMS_P1;PMS_P2;Temp;Humidity;BMP_temperature;BMP_pressure;BME280_temperature;BME280_humidity;BME280_pressure;Samples;Min_cycle;Max_cycle;Signal;HPM_P1;HPM_P2
2023/06/08 00:01:45;;;;;;;3.33;3.00;;;;;;;15.69;75.40;98461.34;5022443;28;20228;-61
2023/06/08 00:04:12;;;;;;;6.03;3.27;;;;;;;15.69;75.94;98458.72;5024135;28;20300;-61
2023/06/08 00:06:40;;;;;;;3.63;3.30;;;;;;;15.69;75.08;98456.09;5025791;28;20229;-61
2023/06/08 00:09:10;;;;;;;3.37;2.97;;;;;;;15.69;75.23;98452.63;5023473;28;20673;-61
2023/06/08 00:11:38;;;;;;;5.17;3.10;;;;;;;15.63;74.85;98447.13;5025916;28;20217;-61
2023/06/08 00:14:05;;;;;;;4.17;3.37;;;;;;;15.67;74.16;98449.38;5021273;28;20243;-61
2023/06/08 00:16:32;;;;;;;4.23;3.23;;;;;;;15.71;73.40;98448.81;5025416;28;20224;-61
2023/06/08 00:19:01;;;;;;;6.73;3.23;;;;;;;15.83;72.52;98446.50;5023050;28;20292;-61
2023/06/08 00:21:33;;;;;;;4.83;3.27;;;;;;;15.85;74.14;98447.13;5025527;28;20600;-61
2023/06/08 00:23:59;;;;;;;3.77;3.00;;;;;;;15.75;74.26;98439.56;5022715;28;20236;-61
2023/06/08 00:26:26;;;;;;;3.57;3.17;;;;;;;15.63;74.62;98441.06;5025390;28;20335;-61
2023/06/08 00:28:53;;;;;;;3.63;3.00;;;;;;;15.50;74.65;98442.56;5022025;28;20296;-61
2023/06/08 00:31:20;;;;;;;3.13;2.83;;;;;;;15.40;76.08;98447.31;5023627;28;20236;-61
2023/06/08 00:33:47;;;;;;;6.53;3.10;;;;;;;15.53;73.86;98448.44;5020756;28;20239;-61
2023/06/08 00:36:14;;;;;;;3.97;2.87;;;;;;;15.60;73.65;98442.22;5025517;28;20291;-61
2023/06/08 00:38:41;;;;;;;4.17;3.00;;;;;;;15.61;73.60;98450.94;5020575;28;20229;-61
2023/06/08 00:41:08;;;;;;;4.93;3.10;;;;;;;15.63;74.38;98433.97;5024877;28;20247;-61
2023/06/08 00:43:34;;;;;;;3.70;3.30;;;;;;;15.49;73.86;98438.28;5023404;28;20303;-61
2023/06/08 00:46:02;;;;;;;3.87;3.00;;;;;;;15.37;75.18;98436.34;5020967;28;20327;-61
2023/06/08 00:48:29;;;;;;;4.33;3.17;;;;;;;15.42;74.84;98433.94;5025153;28;20252;-61
2023/06/08 00:50:58;;;;;;;3.17;2.87;;;;;;;15.58;73.00;98432.91;5019842;28;20220;-61
2023/06/08 00:53:26;;;;;;;3.20;2.90;;;;;;;15.70;72.58;98434.03;5013031;28;20735;-61
2023/06/08 00:55:55;;;;;;;4.23;3.23;;;;;;;15.81;71.69;98427.44;5020558;28;20220;-61
2023/06/08 00:58:22;;;;;;;3.20;2.90;;;;;;;15.90;70.97;98426.34;5038262;28;20289;-61
2023/06/08 01:00:49;;;;;;;5.93;3.07;;;;;;;15.84;71.28;98427.06;5019186;28;20236;-61
2023/06/08 01:03:16;;;;;;;4.90;3.20;;;;;;;15.72;71.92;98434.66;5021947;28;20311;-61
2023/06/08 01:05:44;;;;;;;4.43;3.13;;;;;;;15.74;72.01;98429.19;5021488;28;20282;-62
2023/06/08 01:08:18;;;;;;;3.40;2.93;;;;;;;15.74;72.87;98432.66;5025085;28;20240;-62
2023/06/08 01:10:53;;;;;;;3.10;2.80;;;;;;;15.64;73.82;98434.78;5036242;28;20224;-62
2023/06/08 01:13:26;;;;;;;6.43;3.07;;;;;;;15.46;73.81;98432.56;5012241;28;20321;-62
2023/06/08 01:16:00;;;;;;;3.33;2.90;;;;;;;15.36;74.63;98425.00;5020277;28;20226;-62
2023/06/08 01:18:32;;;;;;;3.40;3.03;;;;;;;15.30;75.01;98434.47;5023239;28;20216;-62
2023/06/08 01:21:11;;;;;;;3.63;3.00;;;;;;;15.28;75.31;98435.63;5020158;28;20274;-62
2023/06/08 01:23:54;;;;;;;4.80;3.10;;;;;;;15.28;75.26;98428.59;5024506;28;20319;-62
2023/06/08 01:26:21;;;;;;;4.07;3.37;;;;;;;15.19;75.76;98433.13;5020393;28;20283;-61
2023/06/08 01:28:49;;;;;;;2.80;2.53;;;;;;;15.16;75.86;98425.59;5020045;28;20221;-61
2023/06/08 01:31:15;;;;;;;4.57;2.90;;;;;;;15.11;76.57;98422.72;5022208;28;20232;-61
2023/06/08 01:33:43;;;;;;;4.13;3.20;;;;;;;15.09;76.75;98416.84;5019845;28;20228;-61
2023/06/08 01:36:13;;;;;;;3.40;3.03;;;;;;;15.09;77.41;98419.47;5023126;28;20244;-61
2023/06/08 01:38:49;;;;;;;6.80;3.27;;;;;;;15.14;78.98;98421.53;5038802;28;20222;-61
2023/06/08 01:41:23;;;;;;;4.57;2.70;;;;;;;15.13;78.39;98419.91;5023058;28;20232;-61
2023/06/08 01:43:51;;;;;;;4.23;3.07;;;;;;;15.14;78.13;98419.72;4999709;28;20275;-61
2023/06/08 01:46:21;;;;;;;4.73;2.90;;;;;;;15.16;78.50;98417.72;5022602;28;20230;-61
2023/06/08 01:48:50;;;;;;;5.53;3.40;;;;;;;15.26;77.56;98420.06;5036083;28;20226;-61
2023/06/08 01:51:17;;;;;;;4.30;2.90;;;;;;;15.40;77.36;98417.53;5021173;28;20847;-61
2023/06/08 01:53:44;;;;;;;3.70;2.87;;;;;;;15.41;76.02;98417.38;5018774;28;20222;-61
2023/06/08 01:56:12;;;;;;;3.30;2.70;;;;;;;15.44;76.14;98418.81;5023002;28;20235;-61
2023/06/08 01:58:40;;;;;;;4.90;2.77;;;;;;;15.46;76.19;98420.25;5039317;28;20694;-61
2023/06/08 02:01:06;;;;;;;3.67;3.00;;;;;;;15.58;77.00;98420.56;5019885;28;20229;-61
2023/06/08 02:03:33;;;;;;;3.83;2.97;;;;;;;15.69;78.37;98418.44;5025802;28;20264;-61
2023/06/08 02:06:00;;;;;;;4.73;3.10;;;;;;;15.71;78.34;98417.25;5023731;28;20240;-61
2023/06/08 02:08:26;;;;;;;4.40;2.83;;;;;;;15.63;77.73;98420.81;5026550;28;20236;-61
2023/06/08 02:10:53;;;;;;;3.20;2.90;;;;;;;15.59;76.82;98419.56;5022487;28;20224;-61
2023/06/08 02:13:19;;;;;;;5.23;2.73;;;;;;;15.57;76.18;98413.66;5025824;28;20229;-62
2023/06/08 02:15:47;;;;;;;3.30;2.73;;;;;;;15.57;75.87;98416.31;5023647;28;20217;-61
2023/06/08 02:18:14;;;;;;;3.67;3.20;;;;;;;15.56;75.06;98409.41;5026493;28;20235;-61
2023/06/08 02:20:41;;;;;;;4.27;2.90;;;;;;;15.53;75.64;98411.63;5022045;28;20221;-61
2023/06/08 02:23:08;;;;;;;3.57;2.90;;;;;;;15.58;75.93;98411.88;5027701;28;20278;-61
2023/06/08 02:25:34;;;;;;;3.87;3.00;;;;;;;15.53;75.34;98406.34;5027960;28;20252;-61
2023/06/08 02:28:01;;;;;;;2.93;2.63;;;;;;;15.49;75.39;98406.72;5023567;28;21238;-61
2023/06/08 02:30:28;;;;;;;3.83;2.77;;;;;;;15.49;76.21;98409.38;5025686;28;20218;-61
2023/06/08 02:32:55;;;;;;;4.03;3.10;;;;;;;15.45;75.43;98410.75;5024819;28;20299;-61
2023/06/08 02:35:22;;;;;;;4.80;2.90;;;;;;;15.49;76.08;98409.38;5025722;28;20234;-61
2023/06/08 02:37:50;;;;;;;6.80;3.10;;;;;;;15.46;76.99;98407.09;5024559;28;20220;-61
2023/06/08 02:40:17;;;;;;;3.57;2.97;;;;;;;15.40;76.15;98401.75;5027526;28;20295;-61
2023/06/08 02:42:44;;;;;;;4.20;3.30;;;;;;;15.41;75.44;98411.28;5022053;28;20227;-61
2023/06/08 02:45:15;;;;;;;3.53;2.67;;;;;;;15.35;74.83;98403.16;5025519;28;20310;-61
2023/06/08 02:47:42;;;;;;;2.83;2.63;;;;;;;15.34;74.34;98398.91;5022689;28;20231;-61
2023/06/08 02:50:10;;;;;;;3.57;2.80;;;;;;;15.33;74.90;98397.28;5041468;28;20228;-61
2023/06/08 02:52:37;;;;;;;3.23;2.93;;;;;;;15.34;74.96;98398.09;5025755;28;20274;-61
2023/06/08 02:55:05;;;;;;;4.30;2.93;;;;;;;15.29;75.08;98403.09;5038388;28;20519;-61
2023/06/08 02:57:32;;;;;;;3.90;2.60;;;;;;;15.31;74.77;98407.19;5016412;28;20262;-62
2023/06/08 03:00:04;;;;;;;4.20;3.00;;;;;;;15.27;74.30;98407.72;5022724;28;20286;-62
2023/06/08 03:02:43;;;;;;;2.97;2.70;;;;;;;15.24;74.01;98405.47;5021412;28;20227;-61
2023/06/08 03:05:13;;;;;;;7.53;2.93;;;;;;;15.17;75.43;98400.94;5041664;28;20695;-61
2023/06/08 03:07:40;;;;;;;4.17;3.10;;;;;;;15.13;74.46;98404.94;5041689;28;20290;-61
2023/06/08 03:10:08;;;;;;;3.53;2.90;;;;;;;15.10;74.28;98405.31;5039525;28;20246;-61
2023/06/08 03:12:35;;;;;;;6.50;3.10;;;;;;;15.06;75.12;98401.44;5024948;28;20310;-61
2023/06/08 03:15:06;;;;;;;4.37;3.03;;;;;;;15.02;75.01;98400.16;5021145;28;20644;-61
2023/06/08 03:17:34;;;;;;;5.13;3.10;;;;;;;14.93;76.07;98398.66;5025427;28;20224;-61
2023/06/08 03:20:04;;;;;;;4.07;2.83;;;;;;;14.85;76.17;98397.75;5022621;28;20231;-61
2023/06/08 03:22:36;;;;;;;3.73;3.10;;;;;;;14.88;75.49;98396.59;5024518;28;20241;-61
2023/06/08 03:25:07;;;;;;;6.30;3.37;;;;;;;14.89;75.50;98392.97;5022497;28;20231;-61
2023/06/08 03:27:35;;;;;;;2.70;2.50;;;;;;;14.80;75.94;98394.06;5024266;28;20727;-61
2023/06/08 03:32:52;;;;;;;3.50;2.77;;;;;;;14.74;75.74;98385.91;5062298;23;20226;-62
2023/06/08 03:35:26;;;;;;;4.17;3.20;;;;;;;14.69;75.66;98392.69;4947387;28;20227;-62
2023/06/08 03:38:12;;;;;;;9.97;3.07;;;;;;;14.68;74.48;98386.63;4945004;28;20230;-61
2023/06/08 03:40:39;;;;;;;3.37;3.00;;;;;;;14.73;75.05;98386.91;4946838;28;20306;-61
2023/06/08 03:43:05;;;;;;;5.27;3.03;;;;;;;14.74;74.55;98393.00;4933716;28;20252;-61
2023/06/08 03:45:32;;;;;;;5.57;3.17;;;;;;;14.71;74.10;98386.28;4932739;29;20222;-61
2023/06/08 03:47:59;;;;;;;2.90;2.60;;;;;;;14.72;73.38;98390.53;4930310;28;20222;-61
2023/06/08 03:50:26;;;;;;;3.33;2.97;;;;;;;14.75;73.77;98390.16;4929326;29;20282;-61
2023/06/08 03:52:53;;;;;;;5.33;2.83;;;;;;;14.84;72.89;98401.38;4926866;28;20330;-61
2023/06/08 03:55:21;;;;;;;2.80;2.43;;;;;;;14.85;72.87;98400.38;4932517;28;20238;-61
2023/06/08 03:57:48;;;;;;;5.30;3.07;;;;;;;14.85;74.72;98399.56;4925021;28;20222;-61
2023/06/08 04:00:15;;;;;;;3.83;3.43;;;;;;;14.83;75.24;98405.03;4924855;29;20235;-61
2023/06/08 04:02:42;;;;;;;3.53;3.10;;;;;;;14.85;75.85;98412.72;4930884;28;20278;-61
2023/06/08 04:05:15;;;;;;;3.10;2.80;;;;;;;14.79;76.08;98403.78;4925412;28;20305;-61
2023/06/08 04:07:43;;;;;;;3.90;3.17;;;;;;;14.77;76.99;98405.75;4947919;28;20234;-62
2023/06/08 04:10:10;;;;;;;3.33;2.87;;;;;;;14.72;77.68;98408.13;4928902;28;20331;-61
2023/06/08 04:12:38;;;;;;;4.60;3.17;;;;;;;14.66;76.96;98409.63;4929694;28;20219;-61
2023/06/08 04:15:07;;;;;;;6.37;3.00;;;;;;;14.65;76.82;98415.88;4924423;29;20294;-61
2023/06/08 04:17:34;;;;;;;3.87;3.20;;;;;;;14.63;77.21;98417.88;4925768;29;20231;-61
2023/06/08 04:20:04;;;;;;;5.67;3.20;;;;;;;14.60;77.96;98413.81;4926683;29;20238;-61
2023/06/08 04:22:32;;;;;;;5.60;3.10;;;;;;;14.60;76.64;98413.81;4928816;29;20710;-61
2023/06/08 04:24:59;;;;;;;4.47;3.00;;;;;;;14.61;77.68;98418.06;4928379;28;20235;-61
2023/06/08 04:27:26;;;;;;;5.93;3.17;;;;;;;14.61;77.70;98415.44;4921876;28;20234;-61
2023/06/08 04:29:55;;;;;;;4.17;2.80;;;;;;;14.62;77.95;98416.25;4937983;28;20572;-61
2023/06/08 04:32:22;;;;;;;4.37;3.60;;;;;;;14.66;79.49;98424.59;4932697;28;20242;-61
2023/06/08 04:34:48;;;;;;;6.77;3.73;;;;;;;14.68;79.89;98422.59;4928993;28;20217;-61
2023/06/08 04:37:15;;;;;;;6.60;3.07;;;;;;;14.71;80.24;98424.88;4930407;28;20240;-61
2023/06/08 04:39:48;;;;;;;5.40;3.20;;;;;;;14.83;80.40;98420.81;4921350;28;20315;-61
2023/06/08 04:42:16;;;;;;;5.80;3.67;;;;;;;14.96;80.58;98421.94;4922558;29;20597;-61
2023/06/08 04:44:46;;;;;;;4.37;3.57;;;;;;;15.08;80.27;98428.34;4926464;28;20219;-61
2023/06/08 04:47:15;;;;;;;4.40;3.90;;;;;;;15.19;80.07;98433.13;4927445;29;20236;-61
2023/06/08 04:49:47;;;;;;;5.27;3.40;;;;;;;15.29;79.31;98440.72;4926279;28;20229;-61
2023/06/08 04:52:15;;;;;;;4.93;3.53;;;;;;;15.37;79.43;98437.16;4924540;29;20236;-61
2023/06/08 04:54:52;;;;;;;4.90;3.77;;;;;;;15.44;79.77;98435.41;4924858;28;20231;-61
2023/06/08 04:57:22;;;;;;;8.53;3.60;;;;;;;15.45;79.37;98433.59;4930228;29;20229;-61
2023/06/08 04:59:49;;;;;;;4.77;3.90;;;;;;;15.45;79.46;98433.59;4925286;28;20231;-62
2023/06/08 05:02:17;;;;;;;4.83;3.93;;;;;;;15.42;79.80;98439.22;4935759;28;20240;-62
2023/06/08 05:04:46;;;;;;;5.00;3.60;;;;;;;15.35;80.62;98439.16;4921117;28;20221;-62
2023/06/08 05:07:12;;;;;;;4.93;3.70;;;;;;;15.32;81.58;98439.53;4924198;29;20273;-62
2023/06/08 05:09:43;;;;;;;4.50;3.80;;;;;;;15.39;82.13;98444.84;4930334;28;20273;-62
2023/06/08 05:12:11;;;;;;;4.30;3.90;;;;;;;15.55;81.19;98456.97;4931512;28;20687;-62
2023/06/08 05:14:37;;;;;;;4.57;4.13;;;;;;;15.68;79.71;98458.91;4926181;28;20326;-61
2023/06/08 05:17:04;;;;;;;5.33;4.63;;;;;;;15.77;80.28;98468.28;4926226;28;20232;-61
2023/06/08 05:19:32;;;;;;;5.10;4.33;;;;;;;15.94;79.77;98471.50;4932813;28;20232;-61
2023/06/08 05:21:59;;;;;;;6.73;4.50;;;;;;;16.13;80.12;98470.06;4874534;28;20244;-63
2023/06/08 05:24:25;;;;;;;8.07;4.93;;;;;;;16.28;79.75;98463.88;4922916;28;20303;-63
2023/06/08 05:26:52;;;;;;;7.47;4.83;;;;;;;16.44;78.48;98462.78;4930599;28;20278;-63
2023/06/08 05:29:18;;;;;;;6.77;5.03;;;;;;;16.51;78.39;98463.63;4930700;28;20237;-63
2023/06/08 05:31:45;;;;;;;6.17;4.80;;;;;;;16.63;78.29;98464.72;4929982;28;20311;-63
2023/06/08 05:34:11;;;;;;;5.10;4.60;;;;;;;16.67;76.50;98457.22;4926715;29;20931;-63
2023/06/08 05:36:39;;;;;;;0.00;0.00;;;;;;;16.73;77.23;98463.56;4921878;29;20289;-63
2023/06/08 05:39:06;;;;;;;0.00;0.00;;;;;;;16.80;78.76;98457.28;4925275;28;20288;-63
2023/06/08 05:41:32;;;;;;;0.00;0.00;;;;;;;16.96;78.66;98465.88;4926821;28;20240;-63
2023/06/08 05:43:59;;;;;;;0.00;0.00;;;;;;;16.83;79.40;98461.38;4929074;28;20235;-63
2023/06/08 05:46:25;;;;;;;0.00;0.00;;;;;;;16.87;80.65;98464.44;4932430;28;20325;-63
2023/06/08 05:48:52;;;;;;;0.00;0.00;;;;;;;16.93;79.90;98461.84;4929622;28;20319;-63
2023/06/08 05:51:18;;;;;;;0.00;0.00;;;;;;;17.10;79.47;98470.25;4931745;28;20241;-63
2023/06/08 05:53:46;;;;;;;0.00;0.00;;;;;;;17.14;77.48;98462.72;4925774;28;20234;-63
2023/06/08 05:56:13;;;;;;;0.00;0.00;;;;;;;17.32;77.31;98466.66;4930412;28;20240;-63
2023/06/08 05:58:39;;;;;;;0.00;0.00;;;;;;;17.35;76.08;98463.63;4922232;28;20228;-63
2023/06/08 06:01:09;;;;;;;5.27;4.77;;;;;;;17.62;76.22;98472.41;4929745;28;20235;-63
2023/06/08 06:03:36;;;;;;;6.73;4.97;;;;;;;17.76;76.61;98467.13;4932130;28;20241;-63
2023/06/08 06:06:02;;;;;;;7.13;4.63;;;;;;;17.90;72.93;98460.06;4927020;28;20229;-63
2023/06/08 06:08:29;;;;;;;5.67;3.97;;;;;;;18.12;71.12;98460.69;4932769;28;20241;-63
2023/06/08 06:10:57;;;;;;;5.53;4.13;;;;;;;18.39;70.35;98466.75;4930774;28;20744;-63
2023/06/08 06:13:23;;;;;;;4.10;3.70;;;;;;;18.46;68.83;98469.41;4932083;28;20237;-63
2023/06/08 06:15:50;;;;;;;7.87;4.20;;;;;;;18.50;67.45;98467.97;4922111;28;20224;-63
2023/06/08 06:18:17;;;;;;;5.40;4.30;;;;;;;18.79;66.03;98468.50;4929523;28;20299;-63
2023/06/08 06:20:44;;;;;;;0.00;0.00;;;;;;;18.94;66.41;98472.72;4926429;28;20634;-63
2023/06/08 06:23:10;;;;;;;0.00;0.00;;;;;;;18.84;65.41;98470.53;4932441;28;20243;-63
2023/06/08 06:25:39;;;;;;;0.00;0.00;;;;;;;18.83;65.53;98464.41;4943644;28;20221;-63
2023/06/08 06:28:07;;;;;;;6.60;3.60;;;;;;;18.82;64.76;98467.28;4925378;28;20245;-63
2023/06/08 06:30:33;;;;;;;0.00;0.00;;;;;;;18.74;63.58;98470.94;4933270;28;20803;-63
2023/06/08 06:33:00;;;;;;;0.00;0.00;;;;;;;18.66;61.61;98473.81;4925446;28;20321;-63
2023/06/08 06:35:27;;;;;;;5.23;3.40;;;;;;;18.72;61.19;98475.63;4928203;28;20716;-63
2023/06/08 06:37:54;;;;;;;4.97;3.23;;;;;;;18.80;60.79;98472.75;4925743;28;20226;-63
2023/06/08 06:40:21;;;;;;;5.40;3.50;;;;;;;18.91;62.61;98479.25;4925902;28;20627;-63
2023/06/08 06:42:48;;;;;;;3.37;2.60;;;;;;;19.17;59.04;98475.72;4924928;28;20239;-63
2023/06/08 06:45:34;;;;;;;0.00;0.00;;;;;;;19.39;59.70;98477.22;4926824;29;20227;-63
2023/06/08 06:48:02;;;;;;;0.00;0.00;;;;;;;19.66;57.70;98487.69;4928753;28;20241;-63
2023/06/08 06:50:29;;;;;;;6.43;2.60;;;;;;;19.85;57.14;98477.97;4932039;28;20237;-63
2023/06/08 06:52:55;;;;;;;0.00;0.00;;;;;;;20.11;57.85;98476.16;4924672;28;20305;-63
2023/06/08 06:55:22;;;;;;;0.00;0.00;;;;;;;20.32;57.13;98480.25;4932175;29;20313;-63
2023/06/08 06:57:49;;;;;;;3.30;3.00;;;;;;;20.55;56.67;98473.53;4929864;28;20277;-63
2023/06/08 07:00:17;;;;;;;4.97;2.73;;;;;;;20.99;56.17;98473.47;4933317;28;20232;-63
2023/06/08 07:02:45;;;;;;;3.77;3.17;;;;;;;21.20;55.71;98477.53;4928287;28;20232;-63
2023/06/08 07:05:12;;;;;;;6.53;3.37;;;;;;;21.33;50.64;98476.53;4938831;28;20235;-63
2023/06/08 07:07:39;;;;;;;4.20;3.10;;;;;;;21.66;51.14;98470.78;4932343;28;20874;-63
2023/06/08 07:10:06;;;;;;;3.10;2.80;;;;;;;21.68;51.61;98475.88;4930072;28;20246;-63
2023/06/08 07:12:33;;;;;;;3.87;2.70;;;;;;;21.59;51.87;98472.69;4919743;28;20235;-63
2023/06/08 07:14:59;;;;;;;5.67;3.00;;;;;;;21.69;52.82;98474.84;4936941;28;20228;-63
2023/06/08 07:17:26;;;;;;;3.40;3.10;;;;;;;21.82;51.58;98477.28;4933837;28;20240;-63
2023/06/08 07:19:54;;;;;;;3.10;2.80;;;;;;;21.95;50.28;98473.63;4920278;29;20593;-63
2023/06/08 07:22:20;;;;;;;3.60;3.07;;;;;;;21.94;51.10;98474.66;4932850;28;20577;-63
2023/06/08 07:24:47;;;;;;;6.67;3.10;;;;;;;21.83;49.89;98478.88;4928842;28;20300;-63
2023/06/08 07:27:14;;;;;;;3.53;3.00;;;;;;;22.07;48.50;98476.28;4935466;28;20244;-63
2023/06/08 07:29:47;;;;;;;4.20;3.00;;;;;;;22.16;48.31;98470.63;4929700;28;20320;-63
2023/06/08 07:32:14;;;;;;;5.67;2.93;;;;;;;22.11;47.61;98479.28;4930047;28;20272;-63
2023/06/08 07:34:47;;;;;;;4.80;3.00;;;;;;;22.25;44.44;98479.88;4929645;28;20993;-63
2023/06/08 07:37:15;;;;;;;3.77;2.80;;;;;;;22.28;45.97;98479.41;4932029;28;20250;-63
2023/06/08 07:39:46;;;;;;;3.13;2.83;;;;;;;22.52;46.09;98484.75;4928771;28;20231;-63
2023/06/08 07:42:13;;;;;;;4.50;3.00;;;;;;;22.63;46.33;98483.13;4933160;28;20704;-63
2023/06/08 07:44:46;;;;;;;4.60;3.10;;;;;;;22.78;45.10;98480.00;4923355;28;20239;-63
2023/06/08 07:47:12;;;;;;;4.63;2.93;;;;;;;22.49;45.20;98475.38;4935065;28;20242;-63
2023/06/08 07:49:43;;;;;;;4.23;3.20;;;;;;;22.70;44.56;98475.81;4923719;28;20226;-63
2023/06/08 07:52:10;;;;;;;7.13;3.00;;;;;;;22.51;44.64;98478.63;4924092;28;20243;-63
2023/06/08 07:54:38;;;;;;;4.77;3.40;;;;;;;22.68;44.14;98480.56;4931973;28;20243;-63
2023/06/08 07:57:05;;;;;;;3.80;2.73;;;;;;;22.65;45.83;98478.38;4918534;28;20243;-63
2023/06/08 07:59:32;;;;;;;3.07;2.73;;;;;;;22.60;44.74;98480.91;4927771;28;20302;-63
2023/06/08 08:01:58;;;;;;;3.80;2.70;;;;;;;22.42;45.32;98485.28;4924290;28;20312;-63
2023/06/08 08:04:25;;;;;;;4.03;3.40;;;;;;;22.35;45.63;98472.13;4927504;28;20242;-63
2023/06/08 08:06:52;;;;;;;4.30;3.00;;;;;;;22.32;45.31;98464.63;4928701;28;20635;-63
2023/06/08 08:09:18;;;;;;;5.00;3.10;;;;;;;22.16;44.92;98470.63;4928152;28;20276;-63
2023/06/08 08:11:46;;;;;;;4.70;3.10;;;;;;;22.15;45.93;98472.47;4931071;28;20248;-63
2023/06/08 08:14:12;;;;;;;4.37;3.00;;;;;;;22.04;46.07;98474.06;4926654;28;20237;-63
2023/06/08 08:16:39;;;;;;;5.17;3.37;;;;;;;21.78;46.35;98470.78;4931047;28;20316;-63
2023/06/08 08:19:06;;;;;;;3.50;2.70;;;;;;;21.70;47.74;98465.00;4926323;28;20672;-63
2023/06/08 08:21:32;;;;;;;3.33;2.97;;;;;;;21.94;45.98;98464.03;4928535;28;20232;-63
2023/06/08 08:23:59;;;;;;;4.43;3.20;;;;;;;21.97;46.49;98457.44;4930626;28;20240;-63
2023/06/08 08:26:28;;;;;;;6.83;2.83;;;;;;;22.07;47.02;98456.88;4929606;28;20235;-63
2023/06/08 08:28:56;;;;;;;3.87;3.13;;;;;;;22.34;46.47;98449.25;4929179;28;20228;-63
2023/06/08 08:31:23;;;;;;;3.47;3.00;;;;;;;22.70;44.50;98447.38;4925006;28;20245;-63
2023/06/08 08:33:50;;;;;;;4.47;2.90;;;;;;;22.69;43.66;98450.25;4921005;28;20220;-63
2023/06/08 08:36:18;;;;;;;3.73;3.20;;;;;;;22.59;43.92;98448.22;4928378;28;20301;-63
2023/06/08 08:38:44;;;;;;;4.63;3.10;;;;;;;22.77;44.37;98443.78;4925828;28;20301;-63
2023/06/08 08:41:12;;;;;;;3.30;3.00;;;;;;;22.80;43.78;98438.78;4927431;28;20233;-63
2023/06/08 08:43:46;;;;;;;3.30;3.00;;;;;;;22.84;44.86;98431.13;4927838;28;20259;-63
2023/06/08 08:46:15;;;;;;;5.27;3.40;;;;;;;22.90;45.18;98432.84;4923742;28;20235;-63
2023/06/08 08:48:43;;;;;;;3.20;2.80;;;;;;;23.11;44.68;98434.06;4926926;28;20695;-63
2023/06/08 08:51:18;;;;;;;4.33;2.80;;;;;;;23.26;44.19;98425.56;4927947;28;20351;-63
2023/06/08 08:53:47;;;;;;;5.73;2.93;;;;;;;23.59;43.58;98423.19;4922751;28;20227;-63
2023/06/08 08:56:17;;;;;;;3.10;2.80;;;;;;;23.41;44.09;98425.03;4926649;29;20261;-63
2023/06/08 08:58:46;;;;;;;3.70;3.10;;;;;;;23.35;42.82;98436.63;4928488;28;20282;-63
2023/06/08 09:01:14;;;;;;;3.73;3.37;;;;;;;23.31;42.43;98422.19;4926148;29;20722;-63
2023/06/08 09:03:41;;;;;;;4.27;3.60;;;;;;;23.53;41.82;98421.47;4928787;28;20261;-63
2023/06/08 09:06:08;;;;;;;3.23;2.93;;;;;;;23.62;43.07;98419.25;4930320;28;20758;-63
2023/06/08 09:08:34;;;;;;;6.53;3.43;;;;;;;23.84;41.92;98420.16;4931655;28;20227;-63
2023/06/08 09:11:03;;;;;;;5.30;3.23;;;;;;;23.87;41.20;98418.84;4926911;28;23182;-63
2023/06/08 09:13:31;;;;;;;4.13;3.07;;;;;;;23.91;41.15;98414.63;4927592;28;20272;-63
2023/06/08 09:16:07;;;;;;;3.70;3.17;;;;;;;24.16;40.60;98410.75;4921707;28;20284;-63
2023/06/08 09:18:36;;;;;;;4.13;3.47;;;;;;;24.29;40.70;98415.75;4928751;28;20230;-63
2023/06/08 09:21:24;;;;;;;4.03;3.10;;;;;;;24.61;40.14;98414.28;4923031;28;20736;-63
2023/06/08 09:24:04;;;;;;;3.60;3.10;;;;;;;24.39;40.01;98408.91;4929515;28;20311;-63
2023/06/08 09:26:32;;;;;;;3.67;3.20;;;;;;;24.46;39.72;98410.34;4932627;28;20313;-63
2023/06/08 09:29:01;;;;;;;3.93;3.17;;;;;;;24.50;38.77;98408.00;4929481;28;20358;-63
2023/06/08 09:31:51;;;;;;;5.10;3.70;;;;;;;24.61;38.98;98400.94;5065113;27;20590;-63
2023/06/08 09:34:17;;;;;;;3.70;3.30;;;;;;;24.76;39.09;98401.16;5059654;28;20229;-63
2023/06/08 09:36:48;;;;;;;5.47;3.33;;;;;;;24.95;38.57;98392.78;5058727;28;20233;-63
2023/06/08 09:39:15;;;;;;;4.50;3.03;;;;;;;25.04;38.12;98393.94;5055965;28;20317;-63
2023/06/08 09:41:56;;;;;;;4.37;3.17;;;;;;;24.95;37.41;98390.13;5034595;28;20241;-63
2023/06/08 09:44:23;;;;;;;3.60;3.30;;;;;;;24.85;37.67;98384.69;5032918;28;20253;-63
2023/06/08 09:46:50;;;;;;;5.17;3.23;;;;;;;24.90;36.49;98385.53;5027023;28;20252;-63
2023/06/08 09:49:18;;;;;;;7.13;3.50;;;;;;;25.19;36.12;98379.13;5030053;28;20239;-63
2023/06/08 09:51:49;;;;;;;5.63;3.63;;;;;;;25.39;35.92;98383.88;5048504;28;20371;-63
2023/06/08 09:54:17;;;;;;;4.83;3.33;;;;;;;25.54;35.48;98385.06;5060000;28;20583;-63
2023/06/08 09:56:48;;;;;;;4.73;3.50;;;;;;;25.47;35.27;98382.63;5054904;28;20306;-63
2023/06/08 09:59:17;;;;;;;5.53;3.90;;;;;;;25.46;34.70;98373.78;5055778;28;20223;-63
2023/06/08 10:01:54;;;;;;;4.70;3.07;;;;;;;25.26;35.59;98374.41;5054391;28;20229;-63
2023/06/08 10:04:24;;;;;;;5.37;3.17;;;;;;;24.98;36.18;98378.16;5057264;28;20281;-63
2023/06/08 10:06:56;;;;;;;3.63;3.33;;;;;;;24.88;36.92;98374.31;5055569;28;20228;-63
2023/06/08 10:09:28;;;;;;;4.23;3.60;;;;;;;24.67;37.34;98375.09;5055820;28;20234;-63
2023/06/08 10:11:56;;;;;;;5.30;3.60;;;;;;;24.58;37.12;98361.41;5058674;28;20229;-63
2023/06/08 10:14:24;;;;;;;4.90;3.80;;;;;;;24.79;37.86;98362.47;5058308;28;20234;-63
2023/06/08 10:16:51;;;;;;;4.13;3.27;;;;;;;24.82;39.37;98367.31;5054927;28;20222;-63
2023/06/08 10:19:20;;;;;;;5.63;3.30;;;;;;;25.15;37.37;98364.69;5057676;28;20241;-64
2023/06/08 10:21:49;;;;;;;3.90;3.50;;;;;;;25.09;37.22;98369.19;5056607;28;20562;-63
2023/06/08 10:24:19;;;;;;;5.00;3.50;;;;;;;25.13;36.37;98359.59;5058685;28;20234;-63
2023/06/08 10:26:46;;;;;;;4.13;3.50;;;;;;;25.43;37.01;98354.78;5058210;28;20237;-63
2023/06/08 10:29:12;;;;;;;4.87;3.77;;;;;;;25.58;36.40;98362.13;5057017;28;20312;-63
2023/06/08 10:31:40;;;;;;;4.67;3.90;;;;;;;25.38;35.40;98358.22;5056747;28;20296;-64
2023/06/08 10:34:12;;;;;;;5.87;3.63;;;;;;;25.18;36.19;98367.66;5042423;28;20239;-63
2023/06/08 10:36:40;;;;;;;4.70;3.27;;;;;;;25.14;35.88;98363.88;5057375;28;20240;-63
2023/06/08 10:39:12;;;;;;;4.20;3.57;;;;;;;25.34;34.30;98355.25;5054373;28;20324;-63
2023/06/08 10:41:39;;;;;;;4.37;3.53;;;;;;;25.54;35.24;98345.81;5048886;28;20223;-63
2023/06/08 10:44:07;;;;;;;6.47;3.57;;;;;;;25.85;34.42;98348.69;5037445;28;20263;-63
2023/06/08 10:46:43;;;;;;;3.93;3.53;;;;;;;26.21;34.60;98342.75;5046119;28;20215;-63
2023/06/08 10:49:09;;;;;;;4.27;3.63;;;;;;;26.53;34.77;98345.28;5039385;28;20231;-63
2023/06/08 10:51:43;;;;;;;4.10;3.70;;;;;;;26.26;33.13;98339.28;5038784;28;20292;-63
2023/06/08 10:54:21;;;;;;;6.17;3.70;;;;;;;26.51;31.96;98338.56;5038374;28;20240;-63
2023/06/08 10:56:52;;;;;;;3.80;3.33;;;;;;;26.50;32.66;98345.00;5039895;28;20228;-63
2023/06/08 10:59:22;;;;;;;6.30;4.07;;;;;;;26.59;31.81;98351.44;5045238;28;20735;-63
2023/06/08 11:01:49;;;;;;;5.57;3.73;;;;;;;26.64;31.90;98348.00;5040965;28;20243;-63
2023/06/08 11:04:16;;;;;;;4.20;3.53;;;;;;;26.68;31.79;98344.50;5044877;28;20222;-63
2023/06/08 11:06:43;;;;;;;4.57;3.53;;;;;;;26.76;31.80;98340.53;5041714;28;20225;-63
2023/06/08 11:09:11;;;;;;;3.47;3.10;;;;;;;26.97;31.14;98343.28;5046289;28;20293;-63
2023/06/08 11:11:50;;;;;;;4.37;3.50;;;;;;;26.92;28.85;98349.41;5046705;28;20217;-63
2023/06/08 11:14:19;;;;;;;4.40;3.23;;;;;;;27.29;30.27;98346.78;5041836;28;20286;-63
2023/06/08 11:16:49;;;;;;;5.67;3.70;;;;;;;27.38;29.39;98347.84;5042744;28;20244;-64
2023/06/08 11:19:17;;;;;;;6.03;4.23;;;;;;;27.64;30.16;98345.97;5045238;28;20562;-64
2023/06/08 11:21:45;;;;;;;4.40;3.63;;;;;;;27.59;30.47;98342.47;5042193;28;20224;-64
2023/06/08 11:24:42;;;;;;;5.45;3.72;;;;;;;26.77;30.58;98344.81;5048730;28;20226;-65
2023/06/08 11:27:08;;;;;;;4.27;3.87;;;;;;;26.23;31.87;98338.75;5039589;28;20236;-63
2023/06/08 11:29:35;;;;;;;6.07;3.80;;;;;;;26.00;32.57;98339.94;5041568;28;20248;-63
2023/06/08 11:32:11;;;;;;;3.97;3.53;;;;;;;25.76;31.49;98343.00;5041124;28;20236;-63
2023/06/08 11:34:39;;;;;;;4.27;3.67;;;;;;;25.70;33.81;98341.38;5044631;28;20229;-63
2023/06/08 11:37:05;;;;;;;5.93;3.73;;;;;;;25.56;33.78;98332.19;5042477;28;20234;-63
2023/06/08 11:39:33;;;;;;;6.60;3.77;;;;;;;25.55;35.33;98336.72;5043508;28;20240;-63
2023/06/08 11:42:03;;;;;;;4.57;3.73;;;;;;;25.54;30.43;98334.28;5041865;28;20266;-63
2023/06/08 11:44:30;;;;;;;4.40;4.00;;;;;;;25.60;29.29;98335.94;5043815;28;20243;-63